Time;durP1;ratioP1;P1;durP2;ratioP2;P2;SDS_P1;SDS_P2;PMS_P1;PMS_P2;Temp;Humidity;BMP_temperature;BMP_pressure;BME280_temperature;BME280_humidity;BME280_pressure;Samples;Min_cycle;Max_cycle;Signal;HPM_P1;HPM_P2
2019/06/03 00:00:49;;;;;;;9.450001;8.5;;;;;;;13.26;77.66895;95220;;;;
2019/06/03 00:01:51;;;;;;;9.450001;8.5;;;;;;;13.26;77.66895;95220;;;;
2019/06/03 00:02:52;;;;;;;9.450001;8.5;;;;;;;13.26;77.66895;95220;;;;
2019/06/03 00:03:53;;;;;;;9.450001;8.5;;;;;;;13.26;77.66895;95220;;;;
2019/06/03 00:04:54;;;;;;;9.450001;8.5;;;;;;;13.26;77.66895;95220;;;;
2019/06/03 00:05:55;;;;;;;9.450001;8.5;;;;;;;13.26;77.66895;95220;;;;
2019/06/03 00:06:57;;;;;;;9.450001;8.5;;;;;;;13.26;77.66895;95220;;;;
2019/06/03 00:07:58;;;;;;;9.450001;8.5;;;;;;;13.26;77.66895;95220;;;;
2019/06/03 00:08:59;;;;;;;9.049999;8.249999;;;;;;;13.03;78.11328;95222.83;;;;
2019/06/03 00:10:00;;;;;;;9.049999;8.249999;;;;;;;13.03;78.11328;95222.83;;;;
2019/06/03 00:11:01;;;;;;;9.049999;8.249999;;;;;;;13.03;78.11328;95222.83;;;;
2019/06/03 00:12:02;;;;;;;9.049999;8.249999;;;;;;;13.03;78.11328;95222.83;;;;
2019/06/03 00:13:03;;;;;;;9.049999;8.249999;;;;;;;13.03;78.11328;95222.83;;;;
2019/06/03 00:14:04;;;;;;;9.049999;8.249999;;;;;;;13.03;78.11328;95222.83;;;;
2019/06/03 00:15:05;;;;;;;9.049999;8.249999;;;;;;;13.03;78.11328;95222.83;;;;
2019/06/03 00:16:06;;;;;;;9.049999;8.249999;;;;;;;13.03;78.11328;95222.83;;;;
2019/06/03 00:17:07;;;;;;;9.049999;8.249999;;;;;;;13.03;78.11328;95222.83;;;;
2019/06/03 00:18:08;;;;;;;9.049999;8.249999;;;;;;;13.03;78.11328;95222.83;;;;
2019/06/03 00:19:10;;;;;;;9.249999;8.35;;;;;;;12.9;78.69141;95212.33;;;;
2019/06/03 00:20:11;;;;;;;9.249999;8.35;;;;;;;12.9;78.69141;95212.33;;;;
2019/06/03 00:21:12;;;;;;;9.249999;8.35;;;;;;;12.9;78.69141;95212.33;;;;
2019/06/03 00:22:13;;;;;;;9.249999;8.35;;;;;;;12.9;78.69141;95212.33;;;;
2019/06/03 00:23:14;;;;;;;9.249999;8.35;;;;;;;12.9;78.69141;95212.33;;;;
2019/06/03 00:24:15;;;;;;;9.249999;8.35;;;;;;;12.9;78.69141;95212.33;;;;
2019/06/03 00:25:16;;;;;;;9.249999;8.35;;;;;;;12.9;78.69141;95212.33;;;;
2019/06/03 00:26:17;;;;;;;9.249999;8.35;;;;;;;12.9;78.69141;95212.33;;;;
2019/06/03 00:27:18;;;;;;;9.249999;8.35;;;;;;;12.9;78.69141;95212.33;;;;
2019/06/03 00:28:19;;;;;;;9.249999;8.35;;;;;;;12.9;78.69141;95212.33;;;;
2019/06/03 00:29:20;;;;;;;9.249999;8.35;;;;;;;12.9;78.69141;95212.33;;;;
2019/06/03 00:30:21;;;;;;;9.65;8.75;;;;;;;12.67;79.25195;95206.21;;;;
2019/06/03 00:31:22;;;;;;;9.65;8.75;;;;;;;12.67;79.25195;95206.21;;;;
2019/06/03 00:32:23;;;;;;;9.65;8.75;;;;;;;12.67;79.25195;95206.21;;;;
2019/06/03 00:33:24;;;;;;;9.65;8.75;;;;;;;12.67;79.25195;95206.21;;;;
2019/06/03 00:34:25;;;;;;;9.65;8.75;;;;;;;12.67;79.25195;95206.21;;;;
2019/06/03 00:35:26;;;;;;;9.65;8.75;;;;;;;12.67;79.25195;95206.21;;;;
2019/06/03 00:36:28;;;;;;;9.65;8.75;;;;;;;12.67;79.25195;95206.21;;;;
2019/06/03 00:37:29;;;;;;;9.65;8.75;;;;;;;12.67;79.25195;95206.21;;;;
2019/06/03 00:38:30;;;;;;;9.65;8.75;;;;;;;12.67;79.25195;95206.21;;;;
2019/06/03 00:39:31;;;;;;;9.65;8.75;;;;;;;12.67;79.25195;95206.21;;;;
2019/06/03 00:40:32;;;;;;;8.899999;8.1;;;;;;;12.55;79.71484;95201.86;;;;
2019/06/03 00:41:33;;;;;;;8.899999;8.1;;;;;;;12.55;79.71484;95201.86;;;;
2019/06/03 00:42:34;;;;;;;8.899999;8.1;;;;;;;12.55;79.71484;95201.86;;;;
2019/06/03 00:43:35;;;;;;;8.899999;8.1;;;;;;;12.55;79.71484;95201.86;;;;
2019/06/03 00:44:36;;;;;;;8.899999;8.1;;;;;;;12.55;79.71484;95201.86;;;;
2019/06/03 00:45:37;;;;;;;8.899999;8.1;;;;;;;12.55;79.71484;95201.86;;;;
2019/06/03 00:46:38;;;;;;;8.899999;8.1;;;;;;;12.55;79.71484;95201.86;;;;
2019/06/03 00:47:39;;;;;;;8.899999;8.1;;;;;;;12.55;79.71484;95201.86;;;;
2019/06/03 00:48:40;;;;;;;8.899999;8.1;;;;;;;12.55;79.71484;95201.86;;;;
2019/06/03 00:49:41;;;;;;;8.899999;8.1;;;;;;;12.55;79.71484;95201.86;;;;
2019/06/03 00:50:42;;;;;;;8.899999;8.1;;;;;;;12.55;79.71484;95201.86;;;;
2019/06/03 00:51:44;;;;;;;9.25;8.35;;;;;;;12.39;80.13477;95210.02;;;;
2019/06/03 00:52:45;;;;;;;9.25;8.35;;;;;;;12.39;80.13477;95210.02;;;;
2019/06/03 00:53:46;;;;;;;9.25;8.35;;;;;;;12.39;80.13477;95210.02;;;;
2019/06/03 00:54:47;;;;;;;9.25;8.35;;;;;;;12.39;80.13477;95210.02;;;;
2019/06/03 00:55:48;;;;;;;9.25;8.35;;;;;;;12.39;80.13477;95210.02;;;;
2019/06/03 00:56:49;;;;;;;9.25;8.35;;;;;;;12.39;80.13477;95210.02;;;;
2019/06/03 00:57:50;;;;;;;9.25;8.35;;;;;;;12.39;80.13477;95210.02;;;;
2019/06/03 00:58:51;;;;;;;9.25;8.35;;;;;;;12.39;80.13477;95210.02;;;;
2019/06/03 00:59:52;;;;;;;9.25;8.35;;;;;;;12.39;80.13477;95210.02;;;;
2019/06/03 01:00:53;;;;;;;9.25;8.35;;;;;;;12.39;80.13477;95210.02;;;;
2019/06/03 01:01:55;;;;;;;9.549999;8.5;;;;;;;12.27;80.58398;95199.27;;;;
2019/06/03 01:02:56;;;;;;;9.549999;8.5;;;;;;;12.27;80.58398;95199.27;;;;
2019/06/03 01:03:57;;;;;;;9.549999;8.5;;;;;;;12.27;80.58398;95199.27;;;;
2019/06/03 01:04:58;;;;;;;9.549999;8.5;;;;;;;12.27;80.58398;95199.27;;;;
2019/06/03 01:05:59;;;;;;;9.549999;8.5;;;;;;;12.27;80.58398;95199.27;;;;
2019/06/03 01:07:01;;;;;;;9.549999;8.5;;;;;;;12.27;80.58398;95199.27;;;;
2019/06/03 01:08:02;;;;;;;9.549999;8.5;;;;;;;12.27;80.58398;95199.27;;;;
2019/06/03 01:09:03;;;;;;;9.549999;8.5;;;;;;;12.27;80.58398;95199.27;;;;
2019/06/03 01:10:05;;;;;;;9.549999;8.5;;;;;;;12.27;80.58398;95199.27;;;;
2019/06/03 01:11:14;;;;;;;9.549999;8.5;;;;;;;12.27;80.58398;95199.27;;;;
2019/06/03 01:12:15;;;;;;;8.85;8;;;;;;;12.08;80.94629;95198.85;;;;
2019/06/03 01:13:16;;;;;;;8.85;8;;;;;;;12.08;80.94629;95198.85;;;;
2019/06/03 01:14:17;;;;;;;8.85;8;;;;;;;12.08;80.94629;95198.85;;;;
2019/06/03 01:15:19;;;;;;;8.85;8;;;;;;;12.08;80.94629;95198.85;;;;
2019/06/03 01:16:20;;;;;;;8.85;8;;;;;;;12.08;80.94629;95198.85;;;;
2019/06/03 01:17:21;;;;;;;8.85;8;;;;;;;12.08;80.94629;95198.85;;;;
2019/06/03 01:18:22;;;;;;;8.85;8;;;;;;;12.08;80.94629;95198.85;;;;
2019/06/03 01:19:23;;;;;;;8.85;8;;;;;;;12.08;80.94629;95198.85;;;;
2019/06/03 01:20:25;;;;;;;8.85;8;;;;;;;12.08;80.94629;95198.85;;;;
2019/06/03 01:21:26;;;;;;;8.85;8;;;;;;;12.08;80.94629;95198.85;;;;
2019/06/03 01:22:27;;;;;;;8.85;8;;;;;;;12.08;80.94629;95198.85;;;;
2019/06/03 01:23:28;;;;;;;8.799999;8.000002;;;;;;;11.96;81.35352;95184.98;;;;
2019/06/03 01:24:29;;;;;;;8.799999;8.000002;;;;;;;11.96;81.35352;95184.98;;;;
2019/06/03 01:25:31;;;;;;;8.799999;8.000002;;;;;;;11.96;81.35352;95184.98;;;;
2019/06/03 01:26:32;;;;;;;8.799999;8.000002;;;;;;;11.96;81.35352;95184.98;;;;
2019/06/03 01:27:33;;;;;;;8.799999;8.000002;;;;;;;11.96;81.35352;95184.98;;;;
2019/06/03 01:28:34;;;;;;;8.799999;8.000002;;;;;;;11.96;81.35352;95184.98;;;;
2019/06/03 01:29:35;;;;;;;8.799999;8.000002;;;;;;;11.96;81.35352;95184.98;;;;
2019/06/03 01:30:36;;;;;;;8.799999;8.000002;;;;;;;11.96;81.35352;95184.98;;;;
2019/06/03 01:31:37;;;;;;;8.799999;8.000002;;;;;;;11.96;81.35352;95184.98;;;;
2019/06/03 01:32:38;;;;;;;8.799999;8.000002;;;;;;;11.96;81.35352;95184.98;;;;
2019/06/03 01:33:39;;;;;;;8.799999;8.000002;;;;;;;11.96;81.35352;95184.98;;;;
2019/06/03 01:34:41;;;;;;;8.799999;8.000002;;;;;;;11.96;81.35352;95184.98;;;;
2019/06/03 01:35:42;;;;;;;8.799999;8.000002;;;;;;;11.96;81.35352;95184.98;;;;
2019/06/03 01:36:43;;;;;;;8.799999;8.000002;;;;;;;11.96;81.35352;95184.98;;;;
2019/06/03 01:37:44;;;;;;;8.799999;8.000002;;;;;;;11.96;81.35352;95184.98;;;;
2019/06/03 01:38:45;;;;;;;8.799999;8.000002;;;;;;;11.96;81.35352;95184.98;;;;
2019/06/03 01:39:46;;;;;;;8.799999;8.000002;;;;;;;11.96;81.35352;95184.98;;;;
2019/06/03 01:40:48;;;;;;;8.799999;8.000002;;;;;;;11.96;81.35352;95184.98;;;;
2019/06/03 01:41:49;;;;;;;8.799999;8.000002;;;;;;;11.96;81.35352;95184.98;;;;
2019/06/03 01:42:50;;;;;;;8.799999;8.000002;;;;;;;11.96;81.35352;95184.98;;;;
2019/06/03 01:43:52;;;;;;;9.5;8.6;;;;;;;11.7;82.31934;95187.52;;;;
2019/06/03 01:44:53;;;;;;;9.5;8.6;;;;;;;11.7;82.31934;95187.52;;;;
2019/06/03 01:45:54;;;;;;;9.5;8.6;;;;;;;11.7;82.31934;95187.52;;;;
2019/06/03 01:46:55;;;;;;;9.5;8.6;;;;;;;11.7;82.31934;95187.52;;;;
2019/06/03 01:47:56;;;;;;;9.5;8.6;;;;;;;11.7;82.31934;95187.52;;;;
2019/06/03 01:48:57;;;;;;;9.5;8.6;;;;;;;11.7;82.31934;95187.52;;;;
2019/06/03 01:49:58;;;;;;;9.5;8.6;;;;;;;11.7;82.31934;95187.52;;;;
2019/06/03 01:51:00;;;;;;;9.5;8.6;;;;;;;11.7;82.31934;95187.52;;;;
2019/06/03 01:52:01;;;;;;;9.5;8.6;;;;;;;11.7;82.31934;95187.52;;;;
2019/06/03 01:53:02;;;;;;;9.5;8.6;;;;;;;11.7;82.31934;95187.52;;;;
2019/06/03 01:54:03;;;;;;;9.5;8.6;;;;;;;11.7;82.31934;95187.52;;;;
2019/06/03 01:55:04;;;;;;;9.15;8.25;;;;;;;11.52;82.62988;95181.27;;;;
2019/06/03 01:56:05;;;;;;;9.15;8.25;;;;;;;11.52;82.62988;95181.27;;;;
2019/06/03 01:57:07;;;;;;;9.15;8.25;;;;;;;11.52;82.62988;95181.27;;;;
2019/06/03 01:58:08;;;;;;;9.15;8.25;;;;;;;11.52;82.62988;95181.27;;;;
2019/06/03 01:59:09;;;;;;;9.15;8.25;;;;;;;11.52;82.62988;95181.27;;;;
2019/06/03 02:00:10;;;;;;;9.15;8.25;;;;;;;11.52;82.62988;95181.27;;;;
2019/06/03 02:01:11;;;;;;;9.15;8.25;;;;;;;11.52;82.62988;95181.27;;;;
2019/06/03 02:02:13;;;;;;;9.15;8.25;;;;;;;11.52;82.62988;95181.27;;;;
2019/06/03 02:03:14;;;;;;;9.15;8.25;;;;;;;11.52;82.62988;95181.27;;;;
2019/06/03 02:04:15;;;;;;;9.15;8.25;;;;;;;11.52;82.62988;95181.27;;;;
2019/06/03 02:05:16;;;;;;;10.3;9.299999;;;;;;;11.41;83.01563;95165.51;;;;
2019/06/03 02:06:17;;;;;;;10.3;9.299999;;;;;;;11.41;83.01563;95165.51;;;;
2019/06/03 02:07:18;;;;;;;10.3;9.299999;;;;;;;11.41;83.01563;95165.51;;;;
2019/06/03 02:08:20;;;;;;;10.3;9.299999;;;;;;;11.41;83.01563;95165.51;;;;
2019/06/03 02:09:21;;;;;;;10.3;9.299999;;;;;;;11.41;83.01563;95165.51;;;;
2019/06/03 02:10:22;;;;;;;10.3;9.299999;;;;;;;11.41;83.01563;95165.51;;;;
2019/06/03 02:11:23;;;;;;;10.3;9.299999;;;;;;;11.41;83.01563;95165.51;;;;
2019/06/03 02:12:25;;;;;;;10.3;9.299999;;;;;;;11.41;83.01563;95165.51;;;;
2019/06/03 02:13:26;;;;;;;10.3;9.299999;;;;;;;11.41;83.01563;95165.51;;;;
2019/06/03 02:14:27;;;;;;;10.3;9.299999;;;;;;;11.41;83.01563;95165.51;;;;
2019/06/03 02:15:28;;;;;;;9.35;8.5;;;;;;;11.25;83.32715;95161.31;;;;
2019/06/03 02:16:29;;;;;;;9.35;8.5;;;;;;;11.25;83.32715;95161.31;;;;
2019/06/03 02:17:30;;;;;;;9.35;8.5;;;;;;;11.25;83.32715;95161.31;;;;
2019/06/03 02:18:31;;;;;;;9.35;8.5;;;;;;;11.25;83.32715;95161.31;;;;
2019/06/03 02:19:33;;;;;;;9.35;8.5;;;;;;;11.25;83.32715;95161.31;;;;
2019/06/03 02:20:34;;;;;;;9.35;8.5;;;;;;;11.25;83.32715;95161.31;;;;
2019/06/03 02:21:35;;;;;;;9.35;8.5;;;;;;;11.25;83.32715;95161.31;;;;
2019/06/03 02:22:36;;;;;;;9.35;8.5;;;;;;;11.25;83.32715;95161.31;;;;
2019/06/03 02:23:37;;;;;;;9.35;8.5;;;;;;;11.25;83.32715;95161.31;;;;
2019/06/03 02:24:38;;;;;;;9.35;8.5;;;;;;;11.25;83.32715;95161.31;;;;
2019/06/03 02:25:39;;;;;;;9.35;8.5;;;;;;;11.25;83.32715;95161.31;;;;
2019/06/03 02:26:41;;;;;;;9.849999;8.849999;;;;;;;11.16;83.76855;95149.77;;;;
2019/06/03 02:27:42;;;;;;;9.849999;8.849999;;;;;;;11.16;83.76855;95149.77;;;;
2019/06/03 02:28:43;;;;;;;9.849999;8.849999;;;;;;;11.16;83.76855;95149.77;;;;
2019/06/03 02:29:44;;;;;;;9.849999;8.849999;;;;;;;11.16;83.76855;95149.77;;;;
2019/06/03 02:30:45;;;;;;;9.849999;8.849999;;;;;;;11.16;83.76855;95149.77;;;;
2019/06/03 02:31:47;;;;;;;9.849999;8.849999;;;;;;;11.16;83.76855;95149.77;;;;
2019/06/03 02:32:48;;;;;;;9.849999;8.849999;;;;;;;11.16;83.76855;95149.77;;;;
2019/06/03 02:33:49;;;;;;;9.849999;8.849999;;;;;;;11.16;83.76855;95149.77;;;;
2019/06/03 02:34:50;;;;;;;9.849999;8.849999;;;;;;;11.16;83.76855;95149.77;;;;
2019/06/03 02:35:51;;;;;;;9.849999;8.849999;;;;;;;11.16;83.76855;95149.77;;;;
2019/06/03 02:36:53;;;;;;;9.949999;8.949999;;;;;;;11;84.10254;95163.95;;;;
2019/06/03 02:37:54;;;;;;;9.949999;8.949999;;;;;;;11;84.10254;95163.95;;;;
2019/06/03 02:38:55;;;;;;;9.949999;8.949999;;;;;;;11;84.10254;95163.95;;;;
2019/06/03 02:39:56;;;;;;;9.949999;8.949999;;;;;;;11;84.10254;95163.95;;;;
2019/06/03 02:40:57;;;;;;;9.949999;8.949999;;;;;;;11;84.10254;95163.95;;;;
2019/06/03 02:41:58;;;;;;;9.949999;8.949999;;;;;;;11;84.10254;95163.95;;;;
2019/06/03 02:42:59;;;;;;;9.949999;8.949999;;;;;;;11;84.10254;95163.95;;;;
2019/06/03 02:44:01;;;;;;;9.949999;8.949999;;;;;;;11;84.10254;95163.95;;;;
2019/06/03 02:45:02;;;;;;;9.949999;8.949999;;;;;;;11;84.10254;95163.95;;;;
2019/06/03 02:46:04;;;;;;;9.949999;8.949999;;;;;;;11;84.10254;95163.95;;;;
2019/06/03 02:47:05;;;;;;;9.949999;8.949999;;;;;;;11;84.10254;95163.95;;;;
2019/06/03 02:48:06;;;;;;;10;9.000001;;;;;;;10.97;84.5332;95170.79;;;;
2019/06/03 02:49:07;;;;;;;10;9.000001;;;;;;;10.97;84.5332;95170.79;;;;
2019/06/03 02:50:08;;;;;;;10;9.000001;;;;;;;10.97;84.5332;95170.79;;;;
2019/06/03 02:51:09;;;;;;;10;9.000001;;;;;;;10.97;84.5332;95170.79;;;;
2019/06/03 02:52:10;;;;;;;10;9.000001;;;;;;;10.97;84.5332;95170.79;;;;
2019/06/03 02:53:11;;;;;;;10;9.000001;;;;;;;10.97;84.5332;95170.79;;;;
2019/06/03 02:54:12;;;;;;;10;9.000001;;;;;;;10.97;84.5332;95170.79;;;;
2019/06/03 02:55:14;;;;;;;10;9.000001;;;;;;;10.97;84.5332;95170.79;;;;
2019/06/03 02:56:15;;;;;;;10;9.000001;;;;;;;10.97;84.5332;95170.79;;;;
2019/06/03 02:57:16;;;;;;;10;9.000001;;;;;;;10.97;84.5332;95170.79;;;;
2019/06/03 02:58:17;;;;;;;9.75;8.749999;;;;;;;10.86;84.94922;95178.92;;;;
2019/06/03 02:59:18;;;;;;;9.75;8.749999;;;;;;;10.86;84.94922;95178.92;;;;
2019/06/03 03:00:19;;;;;;;9.75;8.749999;;;;;;;10.86;84.94922;95178.92;;;;
2019/06/03 03:01:32;;;;;;;9.75;8.749999;;;;;;;10.86;84.94922;95178.92;;;;
2019/06/03 03:02:34;;;;;;;9.75;8.749999;;;;;;;10.86;84.94922;95178.92;;;;
2019/06/03 03:03:35;;;;;;;9.75;8.749999;;;;;;;10.86;84.94922;95178.92;;;;
2019/06/03 03:04:36;;;;;;;9.75;8.749999;;;;;;;10.86;84.94922;95178.92;;;;
2019/06/03 03:05:37;;;;;;;9.75;8.749999;;;;;;;10.86;84.94922;95178.92;;;;
2019/06/03 03:06:38;;;;;;;9.75;8.749999;;;;;;;10.86;84.94922;95178.92;;;;
2019/06/03 03:07:39;;;;;;;9.75;8.749999;;;;;;;10.86;84.94922;95178.92;;;;
2019/06/03 03:08:40;;;;;;;9.950001;9.049999;;;;;;;10.81;85.33496;95177.48;;;;
2019/06/03 03:09:41;;;;;;;9.950001;9.049999;;;;;;;10.81;85.33496;95177.48;;;;
2019/06/03 03:10:43;;;;;;;9.950001;9.049999;;;;;;;10.81;85.33496;95177.48;;;;
2019/06/03 03:11:44;;;;;;;9.950001;9.049999;;;;;;;10.81;85.33496;95177.48;;;;
2019/06/03 03:12:45;;;;;;;9.950001;9.049999;;;;;;;10.81;85.33496;95177.48;;;;
2019/06/03 03:13:46;;;;;;;9.950001;9.049999;;;;;;;10.81;85.33496;95177.48;;;;
2019/06/03 03:14:48;;;;;;;9.950001;9.049999;;;;;;;10.81;85.33496;95177.48;;;;
2019/06/03 03:15:49;;;;;;;9.950001;9.049999;;;;;;;10.81;85.33496;95177.48;;;;
2019/06/03 03:16:50;;;;;;;9.950001;9.049999;;;;;;;10.81;85.33496;95177.48;;;;
2019/06/03 03:17:52;;;;;;;9.950001;9.049999;;;;;;;10.81;85.33496;95177.48;;;;
2019/06/03 03:18:54;;;;;;;9.950001;9.049999;;;;;;;10.81;85.33496;95177.48;;;;
2019/06/03 03:19:56;;;;;;;10.65;9.65;;;;;;;10.7;85.63477;95182.23;;;;
2019/06/03 03:20:57;;;;;;;10.65;9.65;;;;;;;10.7;85.63477;95182.23;;;;
2019/06/03 03:21:59;;;;;;;10.65;9.65;;;;;;;10.7;85.63477;95182.23;;;;
2019/06/03 03:23:03;;;;;;;10.65;9.65;;;;;;;10.7;85.63477;95182.23;;;;
2019/06/03 03:24:04;;;;;;;10.65;9.65;;;;;;;10.7;85.63477;95182.23;;;;
2019/06/03 03:25:05;;;;;;;10.65;9.65;;;;;;;10.7;85.63477;95182.23;;;;
2019/06/03 03:26:07;;;;;;;10.65;9.65;;;;;;;10.7;85.63477;95182.23;;;;
2019/06/03 03:27:08;;;;;;;10.65;9.65;;;;;;;10.7;85.63477;95182.23;;;;
2019/06/03 03:28:09;;;;;;;10.65;9.65;;;;;;;10.7;85.63477;95182.23;;;;
2019/06/03 03:29:10;;;;;;;10.65;9.65;;;;;;;10.7;85.63477;95182.23;;;;
2019/06/03 03:30:12;;;;;;;10.65;9.65;;;;;;;10.7;85.63477;95182.23;;;;
2019/06/03 03:31:13;;;;;;;10.65;9.65;;;;;;;10.7;85.63477;95182.23;;;;
2019/06/03 03:32:14;;;;;;;10.65;9.65;;;;;;;10.7;85.63477;95182.23;;;;
2019/06/03 03:33:15;;;;;;;10.65;9.65;;;;;;;10.7;85.63477;95182.23;;;;
2019/06/03 03:34:16;;;;;;;10.65;9.65;;;;;;;10.7;85.63477;95182.23;;;;
2019/06/03 03:35:18;;;;;;;10.65;9.65;;;;;;;10.7;85.63477;95182.23;;;;
2019/06/03 03:36:19;;;;;;;10.65;9.65;;;;;;;10.7;85.63477;95182.23;;;;
2019/06/03 03:37:21;;;;;;;10.65;9.65;;;;;;;10.7;85.63477;95182.23;;;;
2019/06/03 03:38:22;;;;;;;10.65;9.65;;;;;;;10.7;85.63477;95182.23;;;;
2019/06/03 03:39:23;;;;;;;10.65;9.65;;;;;;;10.7;85.63477;95182.23;;;;
2019/06/03 03:40:24;;;;;;;11.35;10.15;;;;;;;10.67;86.35254;95196.23;;;;
2019/06/03 03:41:25;;;;;;;11.35;10.15;;;;;;;10.67;86.35254;95196.23;;;;
2019/06/03 03:42:26;;;;;;;11.35;10.15;;;;;;;10.67;86.35254;95196.23;;;;
2019/06/03 03:43:27;;;;;;;11.35;10.15;;;;;;;10.67;86.35254;95196.23;;;;
2019/06/03 03:44:28;;;;;;;11.35;10.15;;;;;;;10.67;86.35254;95196.23;;;;
2019/06/03 03:45:29;;;;;;;11.35;10.15;;;;;;;10.67;86.35254;95196.23;;;;
2019/06/03 03:46:33;;;;;;;11.35;10.15;;;;;;;10.67;86.35254;95196.23;;;;
2019/06/03 03:47:34;;;;;;;11.35;10.15;;;;;;;10.67;86.35254;95196.23;;;;
2019/06/03 03:48:35;;;;;;;11.35;10.15;;;;;;;10.67;86.35254;95196.23;;;;
2019/06/03 03:49:37;;;;;;;11.35;10.15;;;;;;;10.67;86.35254;95196.23;;;;
2019/06/03 03:50:38;;;;;;;11.35;10.15;;;;;;;10.67;86.35254;95196.23;;;;
2019/06/03 03:51:39;;;;;;;11.4;10.3;;;;;;;10.77;86.66113;95205.08;;;;
2019/06/03 03:52:40;;;;;;;11.4;10.3;;;;;;;10.77;86.66113;95205.08;;;;
2019/06/03 03:53:41;;;;;;;11.4;10.3;;;;;;;10.77;86.66113;95205.08;;;;
2019/06/03 03:54:42;;;;;;;11.4;10.3;;;;;;;10.77;86.66113;95205.08;;;;
2019/06/03 03:55:43;;;;;;;11.4;10.3;;;;;;;10.77;86.66113;95205.08;;;;
2019/06/03 03:56:44;;;;;;;11.4;10.3;;;;;;;10.77;86.66113;95205.08;;;;
2019/06/03 03:57:45;;;;;;;11.4;10.3;;;;;;;10.77;86.66113;95205.08;;;;
2019/06/03 03:58:46;;;;;;;11.4;10.3;;;;;;;10.77;86.66113;95205.08;;;;
2019/06/03 03:59:47;;;;;;;11.4;10.3;;;;;;;10.77;86.66113;95205.08;;;;
2019/06/03 04:00:48;;;;;;;11.4;10.3;;;;;;;10.77;86.66113;95205.08;;;;
2019/06/03 04:01:49;;;;;;;12.05;10.95;;;;;;;10.83;86.95996;95201.01;;;;
2019/06/03 04:02:50;;;;;;;12.05;10.95;;;;;;;10.83;86.95996;95201.01;;;;
2019/06/03 04:03:52;;;;;;;12.05;10.95;;;;;;;10.83;86.95996;95201.01;;;;
2019/06/03 04:04:53;;;;;;;12.05;10.95;;;;;;;10.83;86.95996;95201.01;;;;
2019/06/03 04:05:54;;;;;;;12.05;10.95;;;;;;;10.83;86.95996;95201.01;;;;
2019/06/03 04:06:55;;;;;;;12.05;10.95;;;;;;;10.83;86.95996;95201.01;;;;
2019/06/03 04:07:56;;;;;;;12.05;10.95;;;;;;;10.83;86.95996;95201.01;;;;
2019/06/03 04:08:57;;;;;;;12.05;10.95;;;;;;;10.83;86.95996;95201.01;;;;
2019/06/03 04:09:58;;;;;;;12.05;10.95;;;;;;;10.83;86.95996;95201.01;;;;
2019/06/03 04:10:59;;;;;;;12.05;10.95;;;;;;;10.83;86.95996;95201.01;;;;
2019/06/03 04:12:00;;;;;;;11.6;10.5;;;;;;;11.01;87.27344;95205.28;;;;
2019/06/03 04:13:01;;;;;;;11.6;10.5;;;;;;;11.01;87.27344;95205.28;;;;
2019/06/03 04:14:02;;;;;;;11.6;10.5;;;;;;;11.01;87.27344;95205.28;;;;
2019/06/03 04:15:03;;;;;;;11.6;10.5;;;;;;;11.01;87.27344;95205.28;;;;
2019/06/03 04:16:04;;;;;;;11.6;10.5;;;;;;;11.01;87.27344;95205.28;;;;
2019/06/03 04:17:06;;;;;;;11.6;10.5;;;;;;;11.01;87.27344;95205.28;;;;
2019/06/03 04:18:07;;;;;;;11.6;10.5;;;;;;;11.01;87.27344;95205.28;;;;
2019/06/03 04:19:08;;;;;;;11.6;10.5;;;;;;;11.01;87.27344;95205.28;;;;
2019/06/03 04:20:09;;;;;;;11.6;10.5;;;;;;;11.01;87.27344;95205.28;;;;
2019/06/03 04:21:10;;;;;;;11.6;10.5;;;;;;;11.01;87.27344;95205.28;;;;
2019/06/03 04:22:11;;;;;;;11.6;10.5;;;;;;;11.01;87.27344;95205.28;;;;
2019/06/03 04:23:12;;;;;;;11.7;10.6;;;;;;;11.15;87.4502;95208.01;;;;
2019/06/03 04:24:13;;;;;;;11.7;10.6;;;;;;;11.15;87.4502;95208.01;;;;
2019/06/03 04:25:14;;;;;;;11.7;10.6;;;;;;;11.15;87.4502;95208.01;;;;
2019/06/03 04:26:15;;;;;;;11.7;10.6;;;;;;;11.15;87.4502;95208.01;;;;
2019/06/03 04:27:16;;;;;;;11.7;10.6;;;;;;;11.15;87.4502;95208.01;;;;
2019/06/03 04:28:17;;;;;;;11.7;10.6;;;;;;;11.15;87.4502;95208.01;;;;
2019/06/03 04:29:18;;;;;;;11.7;10.6;;;;;;;11.15;87.4502;95208.01;;;;
2019/06/03 04:30:19;;;;;;;11.7;10.6;;;;;;;11.15;87.4502;95208.01;;;;
2019/06/03 04:31:20;;;;;;;11.7;10.6;;;;;;;11.15;87.4502;95208.01;;;;
2019/06/03 04:32:22;;;;;;;11.7;10.6;;;;;;;11.15;87.4502;95208.01;;;;
2019/06/03 04:33:23;;;;;;;10.8;9.8;;;;;;;11.39;87.69141;95217.64;;;;
2019/06/03 04:34:24;;;;;;;10.8;9.8;;;;;;;11.39;87.69141;95217.64;;;;
2019/06/03 04:35:25;;;;;;;10.8;9.8;;;;;;;11.39;87.69141;95217.64;;;;
2019/06/03 04:36:26;;;;;;;10.8;9.8;;;;;;;11.39;87.69141;95217.64;;;;
2019/06/03 04:37:27;;;;;;;10.8;9.8;;;;;;;11.39;87.69141;95217.64;;;;
2019/06/03 04:38:28;;;;;;;10.8;9.8;;;;;;;11.39;87.69141;95217.64;;;;
2019/06/03 04:39:29;;;;;;;10.8;9.8;;;;;;;11.39;87.69141;95217.64;;;;
2019/06/03 04:40:30;;;;;;;10.8;9.8;;;;;;;11.39;87.69141;95217.64;;;;
2019/06/03 04:41:31;;;;;;;10.8;9.8;;;;;;;11.39;87.69141;95217.64;;;;
2019/06/03 04:42:32;;;;;;;10.8;9.8;;;;;;;11.39;87.69141;95217.64;;;;
2019/06/03 04:43:33;;;;;;;10.8;9.8;;;;;;;11.39;87.69141;95217.64;;;;
2019/06/03 04:44:34;;;;;;;10.8;9.8;;;;;;;11.39;87.69141;95217.64;;;;
2019/06/03 04:45:35;;;;;;;10.8;9.8;;;;;;;11.39;87.69141;95217.64;;;;
2019/06/03 04:46:36;;;;;;;10.8;9.8;;;;;;;11.39;87.69141;95217.64;;;;
2019/06/03 04:47:37;;;;;;;10.8;9.8;;;;;;;11.39;87.69141;95217.64;;;;
2019/06/03 04:48:38;;;;;;;10.8;9.8;;;;;;;11.39;87.69141;95217.64;;;;
2019/06/03 04:49:40;;;;;;;10.8;9.8;;;;;;;11.39;87.69141;95217.64;;;;
2019/06/03 04:50:41;;;;;;;10.8;9.8;;;;;;;11.39;87.69141;95217.64;;;;
2019/06/03 04:51:42;;;;;;;10.8;9.8;;;;;;;11.39;87.69141;95217.64;;;;
2019/06/03 04:52:43;;;;;;;10.8;9.8;;;;;;;11.39;87.69141;95217.64;;;;
2019/06/03 04:53:44;;;;;;;10.8;9.8;;;;;;;11.39;87.69141;95217.64;;;;
2019/06/03 04:54:45;;;;;;;9.849999;8.95;;;;;;;12.13;87.98828;95217.46;;;;
2019/06/03 04:55:46;;;;;;;9.849999;8.95;;;;;;;12.13;87.98828;95217.46;;;;
2019/06/03 04:56:47;;;;;;;9.849999;8.95;;;;;;;12.13;87.98828;95217.46;;;;
2019/06/03 04:57:48;;;;;;;9.849999;8.95;;;;;;;12.13;87.98828;95217.46;;;;
2019/06/03 04:58:49;;;;;;;9.849999;8.95;;;;;;;12.13;87.98828;95217.46;;;;
2019/06/03 04:59:50;;;;;;;9.849999;8.95;;;;;;;12.13;87.98828;95217.46;;;;
2019/06/03 05:00:51;;;;;;;9.849999;8.95;;;;;;;12.13;87.98828;95217.46;;;;
2019/06/03 05:01:52;;;;;;;9.849999;8.95;;;;;;;12.13;87.98828;95217.46;;;;
2019/06/03 05:02:53;;;;;;;9.849999;8.95;;;;;;;12.13;87.98828;95217.46;;;;
2019/06/03 05:03:54;;;;;;;9.849999;8.95;;;;;;;12.13;87.98828;95217.46;;;;
2019/06/03 05:04:55;;;;;;;9.849999;8.95;;;;;;;12.13;87.98828;95217.46;;;;
2019/06/03 05:05:57;;;;;;;9.849999;8.95;;;;;;;12.13;87.98828;95217.46;;;;
2019/06/03 05:06:58;;;;;;;9.849999;8.95;;;;;;;12.13;87.98828;95217.46;;;;
2019/06/03 05:07:59;;;;;;;9.849999;8.95;;;;;;;12.13;87.98828;95217.46;;;;
2019/06/03 05:09:00;;;;;;;9.849999;8.95;;;;;;;12.13;87.98828;95217.46;;;;
2019/06/03 05:10:01;;;;;;;9.849999;8.95;;;;;;;12.13;87.98828;95217.46;;;;
2019/06/03 05:11:02;;;;;;;9.849999;8.95;;;;;;;12.13;87.98828;95217.46;;;;
2019/06/03 05:12:03;;;;;;;9.849999;8.95;;;;;;;12.13;87.98828;95217.46;;;;
2019/06/03 05:13:05;;;;;;;9.849999;8.95;;;;;;;12.13;87.98828;95217.46;;;;
2019/06/03 05:14:06;;;;;;;9.849999;8.95;;;;;;;12.13;87.98828;95217.46;;;;
2019/06/03 05:15:07;;;;;;;9.849999;8.95;;;;;;;12.13;87.98828;95217.46;;;;
2019/06/03 05:16:08;;;;;;;7.849999;7.050001;;;;;;;13.51;87.28906;95220.28;;;;
2019/06/03 05:17:09;;;;;;;7.849999;7.050001;;;;;;;13.51;87.28906;95220.28;;;;
2019/06/03 05:18:10;;;;;;;7.849999;7.050001;;;;;;;13.51;87.28906;95220.28;;;;
2019/06/03 05:19:11;;;;;;;7.849999;7.050001;;;;;;;13.51;87.28906;95220.28;;;;
2019/06/03 05:20:12;;;;;;;7.849999;7.050001;;;;;;;13.51;87.28906;95220.28;;;;
2019/06/03 05:21:14;;;;;;;7.849999;7.050001;;;;;;;13.51;87.28906;95220.28;;;;
2019/06/03 05:22:15;;;;;;;7.849999;7.050001;;;;;;;13.51;87.28906;95220.28;;;;
2019/06/03 05:23:16;;;;;;;7.849999;7.050001;;;;;;;13.51;87.28906;95220.28;;;;
2019/06/03 05:24:17;;;;;;;7.849999;7.050001;;;;;;;13.51;87.28906;95220.28;;;;
2019/06/03 05:25:18;;;;;;;7.849999;7.050001;;;;;;;13.51;87.28906;95220.28;;;;
2019/06/03 05:26:19;;;;;;;7.849999;7.050001;;;;;;;13.51;87.28906;95220.28;;;;
2019/06/03 05:27:21;;;;;;;7.849999;7.050001;;;;;;;13.51;87.28906;95220.28;;;;
2019/06/03 05:28:22;;;;;;;7.849999;7.050001;;;;;;;13.51;87.28906;95220.28;;;;
2019/06/03 05:29:23;;;;;;;7.849999;7.050001;;;;;;;13.51;87.28906;95220.28;;;;
2019/06/03 05:30:24;;;;;;;7.849999;7.050001;;;;;;;13.51;87.28906;95220.28;;;;
2019/06/03 05:31:40;;;;;;;7.849999;7.050001;;;;;;;13.51;87.28906;95220.28;;;;
2019/06/03 05:32:41;;;;;;;7.849999;7.050001;;;;;;;13.51;87.28906;95220.28;;;;
2019/06/03 05:33:42;;;;;;;7.849999;7.050001;;;;;;;13.51;87.28906;95220.28;;;;
2019/06/03 05:34:44;;;;;;;7.849999;7.050001;;;;;;;13.51;87.28906;95220.28;;;;